• Join FlightAware (Why Join?)
  • Login
  • US Flag 
03:21AM EDT


 

Airport Tracker/Info


-or-


 

Live Flight TrackerFlight Track Log ✈ N920AC ✈ 04-Nov-2013 ✈ KAPF - KORL

Flight Track Log - Related Links

Times and Time Zones

All times are in EST time to prevent confusion due to time zone crossing. See the N920AC flight status page for this flight to view local times or setup timezone preferences in your user account.

Time Position Orientation Groundspeed Altitude Reporting Facility
EST Latitude Longitude Course Direction KTS MPH feet Rate Location/Type
04:37PM 26.3007 -81.7488 355° North  Level Estimated
04:38PM 26.3256 -81.7524 353° North  Level FlightAware Approximate
04:39PM 26.3504 -81.7560 353° North  Level FlightAware Approximate
04:40PM 26.3752 -81.7597 353° North  Level FlightAware Approximate
04:41PM 26.4000 -81.7633 353° North  Level FlightAware Approximate
04:42PM 26.4249 -81.7670 353° North  Level FlightAware Approximate
04:43PM 26.4497 -81.7706 353° North  Level FlightAware Approximate
04:44PM 26.4745 -81.7743 353° North  Level FlightAware Approximate
04:45PM 26.4994 -81.7779 353° North  Level FlightAware Approximate
04:46PM 26.5242 -81.7816 353° North  Level FlightAware Approximate
04:47PM 26.5490 -81.7852 353° North  Level FlightAware Approximate
04:48PM 26.5739 -81.7889 353° North  Level FlightAware Approximate
04:49PM 26.5987 -81.7925 353° North  Level FlightAware Approximate
04:50PM 26.6235 -81.7962 352° North  Level FlightAware Approximate
04:51PM 26.6483 -81.7998 352° North  Level FlightAware Approximate
04:52PM 26.6732 -81.8035 352° North  Level FlightAware Approximate
04:53PM 26.6980 -81.8072 352° North  Level FlightAware Approximate
04:54PM 26.7228 -81.8108 352° North  Level FlightAware Approximate
04:55PM 26.7476 -81.8145 352° North  Level FlightAware Approximate
04:56PM 26.7725 -81.8181 352° North  Level FlightAware Approximate
04:57PM 26.7973 -81.8218 352° North  Level FlightAware Approximate
04:58PM 26.8221 -81.8255 352° North  Level FlightAware Approximate
04:58PM 26.8075 -81.8461 352° North 100 115 6,000  Level Miami Center
04:59PM 26.8469 -81.8291 352° North  Level FlightAware Approximate
04:59PM 26.8344 -81.8497 353° North 100 115 6,000  Level Miami Center
05:00PM 26.8717 -81.8328 352° North  Level FlightAware Approximate
05:00PM 26.8594 -81.8531 353° North 94 108 6,000  Level Miami Center
05:01PM 26.8966 -81.8365 352° North  Level FlightAware Approximate
05:01PM 26.8864 -81.8589 349° North 94 108 6,000  Level Miami Center
05:02PM 26.9214 -81.8402 352° North  Level FlightAware Approximate
05:02PM 26.9156 -81.8578 North 94 108 6,000  Level Miami Center
05:03PM 26.9344 -81.8586 358° North 99 114 6,000  Level Miami Center
05:04PM 26.9592 -81.8644 348° North 99 114 6,100  Climbing Miami Center
05:05PM 26.9861 -81.8703 349° North 99 114 6,000 -60 Descending Miami Center
05:06PM 27.0153 -81.8761 350° North 104 120 6,000  Level Miami Center
05:07PM 27.0422 -81.8797 353° North 104 120 6,000  Level Miami Center
05:08PM 27.0711 -81.8856 350° North 104 120 6,000  Level Miami Center
05:09PM 27.1003 -81.8892 354° North 104 120 6,000  Level Miami Center
05:10PM 27.1294 -81.8928 354° North 104 120 6,100  Climbing Miami Center
05:11PM 27.1564 -81.8939 358° North 104 120 6,100  Level Miami Center
05:12PM 27.1856 -81.8997 350° North 104 120 6,100 -60 Level Miami Center
05:13PM 27.2164 -81.9081 346° North 104 120 6,000 -60 Descending Miami Center
05:14PM 27.2433 -81.9186 341° North 104 120 6,000  Level Miami Center
05:15PM 27.2742 -81.9294 343° North 104 120 6,000  Level Miami Center
05:16PM 27.3033 -81.9331 354° North 104 120 6,100  Climbing Miami Center
05:17PM 27.3283 -81.9317 North 104 120 6,100  Level Miami Center
05:18PM 27.3558 -81.9258 11° North 99 114 6,100  Level Miami Center
05:19PM 27.3808 -81.9222 North 99 114 6,100  Level Miami Center
05:20PM 27.4078 -81.9258 353° North 99 114 6,100  Level Miami Center
05:21PM 27.4367 -81.9364 342° North 99 114 6,100 -60 Level Miami Center
05:22PM 27.4636 -81.9425 349° North 99 114 6,000  Descending Miami Center
05:23PM 27.4906 -81.9458 354° North 99 114 6,100  Climbing Miami Center
05:24PM 27.5175 -81.9517 349° North 99 114 6,100  Level Miami Center
05:25PM 27.5467 -81.9531 358° North 99 114 6,100  Level Miami Center
05:26PM 27.5717 -81.9567 353° North 99 114 6,100  Level Miami Center
05:27PM 27.6006 -81.9625 350° North 104 120 6,100 -60 Level Miami Center
05:28PM 27.6297 -81.9639 358° North 97 112 6,000  Descending Miami Center
05:29PM 27.6547 -81.9672 353° North 97 112 6,100  Climbing Miami Center
05:30PM 27.6800 -81.9636 North 97 112 6,100  Level Miami Center
05:31PM 27.7092 -81.9650 358° North 104 120 6,100  Level Miami Center
05:32PM 27.7381 -81.9686 354° North 98 113 6,100  Level Miami Center
05:33PM 27.7672 -81.9747 349° North 103 119 6,100  Level Miami Center
05:34PM 27.7942 -81.9783 353° North 103 119 6,100  Level Miami Center
05:35PM 27.8231 -81.9889 342° North 103 119 6,100 -60 Level Miami Center
05:36PM 27.8667 -82.0000 347° North 104 120 6,000 -60 Descending Tampa TRACON
05:37PM 27.9000 -82.0167 336° Northwest 101 116 6,000 -300 Level Tampa TRACON
05:38PM 27.9333 -82.0167 360° North 105 121 5,400 -480 Descending Tampa TRACON
05:39PM 27.9667 -82.0167 360° North 105 121 5,000 -240 Descending Tampa TRACON
05:40PM 27.9833 -82.0333 319° Northwest 101 116 5,000  Level Tampa TRACON
05:41PM 28.0167 -82.0500 336° Northwest 105 121 5,000  Level Tampa TRACON
05:42PM 28.0333 -82.0500 360° North 104 120 5,000  Level Tampa TRACON
05:43PM 28.0667 -82.0500 360° North 89 102 5,000  Level Tampa TRACON
05:44PM 28.0833 -82.0667 319° Northwest 94 108 5,000 -60 Level Tampa TRACON
05:45PM 28.1000 -82.0500 41° Northeast 80 92 4,900 -60 Descending Tampa TRACON
05:46PM 28.1333 -82.0500 360° North 78 90 4,900  Level Tampa TRACON
05:47PM 28.1500 -82.0333 41° Northeast 81 93 5,000  Climbing Tampa TRACON
05:48PM 28.1667 -82.0333 360° North 81 93 5,000  Level Tampa TRACON
05:49PM 28.1833 -82.0167 41° Northeast 82 94 5,000  Level Tampa TRACON
05:51PM 28.2167 -82.0000 24° Northeast 76 87 5,000  Level Orlando TRACON
05:52PM 28.2333 -81.9833 41° Northeast 70 81 5,000 -60 Level Orlando TRACON
05:53PM 28.2333 -81.9667 90° East 67 77 4,900 -60 Descending Orlando TRACON
05:54PM 28.2500 -81.9333 60° Northeast 68 78 4,900  Level Orlando TRACON
05:55PM 28.2667 -81.9167 41° Northeast 67 77 5,000  Climbing Orlando TRACON
05:56PM 28.2667 -81.9000 90° East 66 76 5,000  Level Orlando TRACON
05:57PM 28.2833 -81.8833 41° Northeast 64 74 5,000 -180 Level Orlando TRACON
05:58PM 28.2833 -81.8667 90° East 66 76 4,700 -540 Descending Orlando TRACON
05:59PM 28.3000 -81.8500 41° Northeast 79 91 4,000 -660 Descending Orlando TRACON
06:00PM 28.3167 -81.8333 41° Northeast 76 87 3,400 -540 Descending Orlando TRACON
06:01PM 28.3333 -81.8167 41° Northeast 73 84 3,000 -360 Descending Orlando TRACON
06:02PM 28.3500 -81.8000 41° Northeast 75 86 2,700 -360 Descending Orlando TRACON
06:03PM 28.3667 -81.7833 41° Northeast 74 85 2,300 -360 Descending Orlando TRACON
06:04PM 28.3833 -81.7667 41° Northeast 76 87 2,000 -120 Descending Orlando TRACON
06:05PM 28.3833 -81.7500 90° East 70 81 2,100  Climbing Orlando TRACON
06:06PM 28.4000 -81.7333 41° Northeast 78 90 2,100 -60 Level Orlando TRACON
06:07PM 28.4000 -81.7000 90° East 79 91 2,000 -60 Descending Orlando TRACON
06:08PM 28.4167 -81.6833 41° Northeast 75 86 2,000  Level Orlando TRACON
06:09PM 28.4167 -81.6667 90° East 75 86 2,000  Level Orlando TRACON
06:10PM 28.4333 -81.6500 41° Northeast 63 72 2,000  Level Orlando TRACON
06:11PM 28.4500 -81.6500 360° North 75 86 2,000  Level Orlando TRACON
06:12PM 28.4667 -81.6333 41° Northeast 73 84 2,000  Level Orlando TRACON
06:13PM 28.4500 -81.6167 139° Southeast 75 86 2,000  Level Orlando TRACON
06:14PM 28.4500 -81.5833 90° East 74 85 2,100  Climbing Orlando TRACON
06:15PM 28.4500 -81.5667 90° East 68 78 2,100 -60 Level Orlando TRACON
06:16PM 28.4667 -81.5500 41° Northeast 73 84 2,000 -60 Descending Orlando TRACON
06:17PM 28.4667 -81.5333 90° East 65 75 2,000  Level Orlando TRACON
06:18PM 28.4833 -81.5000 60° Northeast 70 81 2,100  Climbing Orlando TRACON
06:19PM 28.4833 -81.4833 90° East 76 87 2,100 -60 Level Orlando TRACON
06:20PM 28.5000 -81.4667 41° Northeast 76 87 2,000 -60 Descending Orlando TRACON
06:21PM 28.5000 -81.4500 90° East 74 85 2,000 -240 Level Orlando TRACON
06:22PM 28.5167 -81.4333 41° Northeast 65 75 1,600 -300 Descending Orlando TRACON
06:23PM 28.5167 -81.4167 90° East 62 71 1,400 -300 Descending Orlando TRACON
06:24PM 28.5167 -81.3833 90° East 69 79 1,000 -360 Descending Orlando TRACON
06:25PM 28.5333 -81.3667 41° Northeast 73 84 700 -360 Descending Orlando TRACON
06:26PM 28.5333 -81.3500 90° East 61 70 300 -420 Descending Orlando TRACON